메인 페이지
METAR-TAF:

공항 :

칭다오, 중국

칭다오 류팅 국제공항

위도: 36-04N, 경도: 120-20E, 고도: 77m

현재 날씨관측

예보는 43분 전, 11:00시(UTC)에 발표되었습니다.
남남동12kt
온도 21°C
습도 56%
기압 1006 hPa
시정: 7000m

METAR: ZSQD 011100Z 16006MPS 7000 NSC 21/12 Q1006 NOSIG

시각: 19:43 (11:43 UTC)

예보

예보는 2 시간 32분 전, 09:11시(UTC)에 발표되었습니다.
예보 대상 시간: 01일 12시부터 02일 12시까지 (UTC)
14kt
시정: 5000m
박무
전환 중
01일 19시부터 01일 20시까지 (UTC)
시정: 2700m
고도 1000ft 상공 구름 많음
고도 2000ft 상공 구름 많음
약한비, 박무
전환 중
01일 22시부터 01일 23시까지 (UTC)
시정: 3500m
일시적
01일 21시부터 02일 03시까지 (UTC)
고도 700ft 상공 구름 많음
고도 2000ft 상공 구름 많음
고도 3000ft 상공 구름 보통, 적란운.
뇌우, 약한비
일시적
02일 06시부터 02일 12시까지 (UTC)
고도 2000ft 상공 구름 많음
고도 3000ft 상공 구름 보통, 적란운.
뇌우, 비

TAF: ZSQD 010911Z 0112/0212 17007MPS 5000 BR NSC TX23/0206Z TN19/0121Z BECMG 0119/0120 2700 -RA BR BKN010 BKN020 BECMG 0122/0123 3500 TEMPO 0121/0203 -TSRA BKN007 BKN020 SCT030CB TEMPO 0206/0212 TSRA BKN020 SCT030CB

METAR-TAF

4,000개 이상의 공항 관측 자료 및 예보 (METAR 및 TAF 보고).

지도상에서 검색 가능한 기상관측소가 노란 점과 빨간 점으로 표시되어 있습니다.

기상관측소 명을 보려면 표시 위로 마우스를 이동하세요.

날씨 관측과 예보를 보려면 클릭하세요.

지도 변경 : 확대하려면 엑스 표시가 있는 녹색 버튼, 축소하려면 빼기 표시가 있는 녹색 버튼, 다음 페이지의 지도를 보려면 녹색 화살표를 클릭하세요.


METAR-TAF: